sensor_id;sensor_type;location;lat;lon;timestamp;pressure;altitude;pressure_sealevel;temperature;humidity
32298;BME280;18782;48.984;8.548;2022-07-01T00:01:17;100077.91;;;18.44;78.63
32298;BME280;18782;48.984;8.548;2022-07-01T00:03:46;100069.31;;;18.27;78.27
32298;BME280;18782;48.984;8.548;2022-07-01T00:06:16;100059.69;;;18.38;79.01
32298;BME280;18782;48.984;8.548;2022-07-01T00:08:44;100057.91;;;18.48;78.93
32298;BME280;18782;48.984;8.548;2022-07-01T00:11:13;100067.50;;;18.38;78.55
32298;BME280;18782;48.984;8.548;2022-07-01T00:13:41;100076.09;;;18.52;79.06
32298;BME280;18782;48.984;8.548;2022-07-01T00:16:09;100079.63;;;18.48;77.18
32298;BME280;18782;48.984;8.548;2022-07-01T00:18:37;100084.72;;;18.67;76.63
32298;BME280;18782;48.984;8.548;2022-07-01T00:21:06;100096.84;;;18.77;76.43
32298;BME280;18782;48.984;8.548;2022-07-01T00:23:40;100094.22;;;18.78;75.15
32298;BME280;18782;48.984;8.548;2022-07-01T00:26:07;100088.13;;;18.78;75.76
32298;BME280;18782;48.984;8.548;2022-07-01T00:28:35;100092.56;;;18.70;76.48
32298;BME280;18782;48.984;8.548;2022-07-01T00:31:03;100099.44;;;18.82;76.31
32298;BME280;18782;48.984;8.548;2022-07-01T00:33:31;100093.31;;;18.87;76.55
32298;BME280;18782;48.984;8.548;2022-07-01T00:35:59;100088.06;;;18.90;75.90
32298;BME280;18782;48.984;8.548;2022-07-01T00:38:28;100086.34;;;18.86;76.04
32298;BME280;18782;48.984;8.548;2022-07-01T00:40:56;100095.06;;;18.82;76.96
32298;BME280;18782;48.984;8.548;2022-07-01T00:43:24;100075.13;;;18.76;75.03
32298;BME280;18782;48.984;8.548;2022-07-01T00:46:11;100080.25;;;18.87;76.47
32298;BME280;18782;48.984;8.548;2022-07-01T00:48:41;100083.69;;;18.95;76.86
32298;BME280;18782;48.984;8.548;2022-07-01T00:51:10;100095.81;;;19.02;76.77
32298;BME280;18782;48.984;8.548;2022-07-01T00:53:40;100101.91;;;19.01;75.12
32298;BME280;18782;48.984;8.548;2022-07-01T00:56:08;100112.38;;;18.97;75.61
32298;BME280;18782;48.984;8.548;2022-07-01T00:58:35;100115.94;;;18.82;76.02
32298;BME280;18782;48.984;8.548;2022-07-01T01:01:03;100119.34;;;18.93;76.71
32298;BME280;18782;48.984;8.548;2022-07-01T01:03:31;100117.50;;;19.04;76.42
32298;BME280;18782;48.984;8.548;2022-07-01T01:05:59;100113.13;;;19.10;75.63
32298;BME280;18782;48.984;8.548;2022-07-01T01:08:26;100109.63;;;19.14;75.55
32298;BME280;18782;48.984;8.548;2022-07-01T01:10:56;100106.97;;;19.20;75.06
32298;BME280;18782;48.984;8.548;2022-07-01T01:13:23;100099.97;;;19.25;74.02
32298;BME280;18782;48.984;8.548;2022-07-01T01:15:51;100090.41;;;19.24;74.27
32298;BME280;18782;48.984;8.548;2022-07-01T01:18:19;100093.88;;;19.24;73.92
32298;BME280;18782;48.984;8.548;2022-07-01T01:20:48;100093.00;;;19.27;74.41
32298;BME280;18782;48.984;8.548;2022-07-01T01:23:16;100077.28;;;19.30;74.03
32298;BME280;18782;48.984;8.548;2022-07-01T01:25:46;100083.41;;;19.26;73.47
32298;BME280;18782;48.984;8.548;2022-07-01T01:28:14;100087.78;;;19.27;74.16
32298;BME280;18782;48.984;8.548;2022-07-01T01:30:42;100087.84;;;19.18;74.18
32298;BME280;18782;48.984;8.548;2022-07-01T01:33:10;100086.31;;;18.92;74.38
32298;BME280;18782;48.984;8.548;2022-07-01T01:35:38;100087.97;;;18.99;74.92
32298;BME280;18782;48.984;8.548;2022-07-01T01:38:08;100097.50;;;19.05;75.14
32298;BME280;18782;48.984;8.548;2022-07-01T01:40:36;100099.41;;;18.83;74.56
32298;BME280;18782;48.984;8.548;2022-07-01T01:43:03;100101.38;;;18.40;75.40
32298;BME280;18782;48.984;8.548;2022-07-01T01:45:31;100090.03;;;18.48;76.80
32298;BME280;18782;48.984;8.548;2022-07-01T01:47:59;100089.13;;;18.59;77.80
32298;BME280;18782;48.984;8.548;2022-07-01T01:50:26;100095.06;;;18.82;76.65
32298;BME280;18782;48.984;8.548;2022-07-01T01:52:54;100088.91;;;18.92;75.71
32298;BME280;18782;48.984;8.548;2022-07-01T01:55:23;100083.59;;;19.04;75.06
32298;BME280;18782;48.984;8.548;2022-07-01T01:57:51;100081.03;;;19.01;75.13
32298;BME280;18782;48.984;8.548;2022-07-01T02:00:18;100066.19;;;19.05;74.80
32298;BME280;18782;48.984;8.548;2022-07-01T02:02:46;100047.91;;;19.11;74.48
32298;BME280;18782;48.984;8.548;2022-07-01T02:05:14;100047.81;;;19.19;73.92
32298;BME280;18782;48.984;8.548;2022-07-01T02:07:42;100046.97;;;19.15;74.08
32298;BME280;18782;48.984;8.548;2022-07-01T02:10:10;100049.66;;;19.08;73.40
32298;BME280;18782;48.984;8.548;2022-07-01T02:12:39;100055.81;;;18.99;74.29
32298;BME280;18782;48.984;8.548;2022-07-01T02:15:07;100052.31;;;19.00;74.05
32298;BME280;18782;48.984;8.548;2022-07-01T02:17:35;100062.81;;;18.97;74.02
32298;BME280;18782;48.984;8.548;2022-07-01T02:20:04;100063.78;;;18.85;74.39
32298;BME280;18782;48.984;8.548;2022-07-01T02:22:31;100065.59;;;18.71;75.12
32298;BME280;18782;48.984;8.548;2022-07-01T02:24:59;100069.00;;;18.79;75.34
32298;BME280;18782;48.984;8.548;2022-07-01T02:27:27;100069.84;;;18.83;75.11
32298;BME280;18782;48.984;8.548;2022-07-01T02:29:56;100081.38;;;18.37;76.20
32298;BME280;18782;48.984;8.548;2022-07-01T02:32:23;100077.78;;;18.63;76.20
32298;BME280;18782;48.984;8.548;2022-07-01T02:34:51;100063.94;;;18.55;76.22
32298;BME280;18782;48.984;8.548;2022-07-01T02:37:18;100054.31;;;18.63;74.82
32298;BME280;18782;48.984;8.548;2022-07-01T02:39:46;100046.56;;;18.50;76.21
32298;BME280;18782;48.984;8.548;2022-07-01T02:42:14;100054.41;;;18.54;74.65
32298;BME280;18782;48.984;8.548;2022-07-01T02:44:53;100063.28;;;18.13;74.42
32298;BME280;18782;48.984;8.548;2022-07-01T02:47:22;100054.63;;;18.06;77.77
32298;BME280;18782;48.984;8.548;2022-07-01T02:49:50;100065.00;;;18.20;77.66
32298;BME280;18782;48.984;8.548;2022-07-01T02:52:22;100066.66;;;18.38;77.39
32298;BME280;18782;48.984;8.548;2022-07-01T02:54:50;100062.22;;;18.54;76.47
32298;BME280;18782;48.984;8.548;2022-07-01T02:57:18;100048.31;;;18.51;75.76
32298;BME280;18782;48.984;8.548;2022-07-01T02:59:45;100046.50;;;18.61;75.96
32298;BME280;18782;48.984;8.548;2022-07-01T03:02:13;100057.00;;;18.50;74.76
32298;BME280;18782;48.984;8.548;2022-07-01T03:04:42;100060.59;;;18.30;75.45
32298;BME280;18782;48.984;8.548;2022-07-01T03:07:10;100059.88;;;18.02;76.67
32298;BME280;18782;48.984;8.548;2022-07-01T03:09:38;100065.09;;;17.98;75.37
32298;BME280;18782;48.984;8.548;2022-07-01T03:12:06;100061.56;;;18.06;78.29
32298;BME280;18782;48.984;8.548;2022-07-01T03:14:48;100059.00;;;18.03;77.80
32298;BME280;18782;48.984;8.548;2022-07-01T03:17:17;100051.03;;;18.33;77.06
32298;BME280;18782;48.984;8.548;2022-07-01T03:19:46;100047.47;;;18.48;75.84
32298;BME280;18782;48.984;8.548;2022-07-01T03:22:14;100047.59;;;18.25;75.81
32298;BME280;18782;48.984;8.548;2022-07-01T03:24:42;100052.00;;;18.09;76.39
32298;BME280;18782;48.984;8.548;2022-07-01T03:27:10;100059.84;;;18.08;77.92
32298;BME280;18782;48.984;8.548;2022-07-01T03:29:37;100071.09;;;18.14;76.48
32298;BME280;18782;48.984;8.548;2022-07-01T03:32:06;100079.06;;;17.53;76.54
32298;BME280;18782;48.984;8.548;2022-07-01T03:34:35;100095.53;;;17.63;79.72
32298;BME280;18782;48.984;8.548;2022-07-01T03:37:05;100083.44;;;17.28;77.88
32298;BME280;18782;48.984;8.548;2022-07-01T03:39:34;100083.41;;;17.27;80.52
32298;BME280;18782;48.984;8.548;2022-07-01T03:42:02;100091.22;;;17.27;80.62
32298;BME280;18782;48.984;8.548;2022-07-01T03:44:31;100088.63;;;16.94;80.53
32298;BME280;18782;48.984;8.548;2022-07-01T03:46:58;100088.66;;;17.13;82.29
32298;BME280;18782;48.984;8.548;2022-07-01T03:49:26;100086.91;;;17.18;80.79
32298;BME280;18782;48.984;8.548;2022-07-01T03:51:54;100073.00;;;17.46;81.25
32298;BME280;18782;48.984;8.548;2022-07-01T03:54:23;100069.53;;;17.41;80.16
32298;BME280;18782;48.984;8.548;2022-07-01T03:56:56;100084.25;;;17.73;79.33
32298;BME280;18782;48.984;8.548;2022-07-01T03:59:24;100098.19;;;17.18;80.03
32298;BME280;18782;48.984;8.548;2022-07-01T04:01:52;100104.25;;;17.40;78.50
32298;BME280;18782;48.984;8.548;2022-07-01T04:04:20;100125.06;;;17.34;79.21
32298;BME280;18782;48.984;8.548;2022-07-01T04:06:48;100131.13;;;17.42;79.79
32298;BME280;18782;48.984;8.548;2022-07-01T04:09:17;100131.09;;;17.64;79.59
32298;BME280;18782;48.984;8.548;2022-07-01T04:11:48;100140.66;;;17.53;78.00
32298;BME280;18782;48.984;8.548;2022-07-01T04:14:16;100145.84;;;17.68;76.76
32298;BME280;18782;48.984;8.548;2022-07-01T04:16:45;100159.72;;;17.27;78.00
32298;BME280;18782;48.984;8.548;2022-07-01T04:19:14;100162.34;;;17.48;79.53
32298;BME280;18782;48.984;8.548;2022-07-01T04:21:41;100157.97;;;17.05;78.64
32298;BME280;18782;48.984;8.548;2022-07-01T04:24:27;100159.69;;;17.01;79.66
32298;BME280;18782;48.984;8.548;2022-07-01T04:26:56;100148.44;;;17.22;79.52
32298;BME280;18782;48.984;8.548;2022-07-01T04:29:24;100147.59;;;17.47;79.06
32298;BME280;18782;48.984;8.548;2022-07-01T04:31:51;100151.06;;;17.04;78.60
32298;BME280;18782;48.984;8.548;2022-07-01T04:34:19;100152.81;;;17.41;79.42
32298;BME280;18782;48.984;8.548;2022-07-01T04:36:47;100151.94;;;17.59;77.40
32298;BME280;18782;48.984;8.548;2022-07-01T04:39:14;100159.75;;;17.61;77.79
32298;BME280;18782;48.984;8.548;2022-07-01T04:41:42;100153.69;;;17.76;77.56
32298;BME280;18782;48.984;8.548;2022-07-01T04:44:31;100173.63;;;17.44;76.74
32298;BME280;18782;48.984;8.548;2022-07-01T04:47:00;100175.34;;;17.36;78.77
32298;BME280;18782;48.984;8.548;2022-07-01T04:49:28;100175.34;;;17.64;78.47
32298;BME280;18782;48.984;8.548;2022-07-01T04:51:57;100175.34;;;17.90;77.64
32298;BME280;18782;48.984;8.548;2022-07-01T04:54:25;100183.16;;;18.07;75.90
32298;BME280;18782;48.984;8.548;2022-07-01T04:56:53;100186.66;;;17.92;75.54
32298;BME280;18782;48.984;8.548;2022-07-01T04:59:21;100195.31;;;17.98;77.50
32298;BME280;18782;48.984;8.548;2022-07-01T05:01:49;100183.13;;;18.08;76.45
32298;BME280;18782;48.984;8.548;2022-07-01T05:04:18;100187.53;;;17.65;75.15
32298;BME280;18782;48.984;8.548;2022-07-01T05:06:46;100178.81;;;17.26;78.85
32298;BME280;18782;48.984;8.548;2022-07-01T05:09:14;100167.53;;;17.64;78.57
32298;BME280;18782;48.984;8.548;2022-07-01T05:11:41;100169.28;;;17.43;78.69
32298;BME280;18782;48.984;8.548;2022-07-01T05:14:09;100178.81;;;17.26;78.29
32298;BME280;18782;48.984;8.548;2022-07-01T05:16:37;100185.72;;;17.06;80.43
32298;BME280;18782;48.984;8.548;2022-07-01T05:19:06;100180.50;;;16.89;80.12
32298;BME280;18782;48.984;8.548;2022-07-01T05:21:51;100175.34;;;17.21;80.94
32298;BME280;18782;48.984;8.548;2022-07-01T05:24:28;100166.66;;;17.43;80.49
32298;BME280;18782;48.984;8.548;2022-07-01T05:26:57;100175.34;;;17.42;79.71
32298;BME280;18782;48.984;8.548;2022-07-01T05:29:25;100167.56;;;17.52;79.60
32298;BME280;18782;48.984;8.548;2022-07-01T05:31:53;100163.22;;;17.57;79.02
32298;BME280;18782;48.984;8.548;2022-07-01T05:34:22;100161.47;;;17.59;79.10
32298;BME280;18782;48.984;8.548;2022-07-01T05:36:50;100168.41;;;17.69;78.51
32298;BME280;18782;48.984;8.548;2022-07-01T05:39:17;100180.59;;;17.82;78.84
32298;BME280;18782;48.984;8.548;2022-07-01T05:41:45;100177.97;;;17.84;77.30
32298;BME280;18782;48.984;8.548;2022-07-01T05:44:13;100173.63;;;17.72;77.68
32298;BME280;18782;48.984;8.548;2022-07-01T05:46:40;100177.09;;;17.92;78.95
32298;BME280;18782;48.984;8.548;2022-07-01T05:49:08;100180.56;;;17.71;79.08
32298;BME280;18782;48.984;8.548;2022-07-01T05:51:44;100175.38;;;17.55;78.17
32298;BME280;18782;48.984;8.548;2022-07-01T05:54:12;100178.81;;;17.69;80.18
32298;BME280;18782;48.984;8.548;2022-07-01T05:56:40;100179.69;;;17.68;78.95
32298;BME280;18782;48.984;8.548;2022-07-01T05:59:07;100182.31;;;17.65;78.88
32298;BME280;18782;48.984;8.548;2022-07-01T06:01:35;100186.63;;;17.69;79.59
32298;BME280;18782;48.984;8.548;2022-07-01T06:04:03;100203.16;;;17.77;77.92
32298;BME280;18782;48.984;8.548;2022-07-01T06:06:31;100215.28;;;17.61;77.45
32298;BME280;18782;48.984;8.548;2022-07-01T06:09:00;100216.97;;;17.24;81.55
32298;BME280;18782;48.984;8.548;2022-07-01T06:11:27;100228.25;;;17.12;79.44
32298;BME280;18782;48.984;8.548;2022-07-01T06:13:55;100223.06;;;17.31;82.45
32298;BME280;18782;48.984;8.548;2022-07-01T06:16:23;100230.88;;;17.63;81.60
32298;BME280;18782;48.984;8.548;2022-07-01T06:18:56;100229.16;;;17.89;79.78
32298;BME280;18782;48.984;8.548;2022-07-01T06:21:24;100230.03;;;17.97;77.59
32298;BME280;18782;48.984;8.548;2022-07-01T06:23:52;100236.97;;;17.89;79.40
32298;BME280;18782;48.984;8.548;2022-07-01T06:26:20;100229.16;;;17.65;78.05
32298;BME280;18782;48.984;8.548;2022-07-01T06:28:48;100234.34;;;17.59;80.20
32298;BME280;18782;48.984;8.548;2022-07-01T06:31:16;100230.03;;;17.65;80.02
32298;BME280;18782;48.984;8.548;2022-07-01T06:33:44;100230.88;;;17.54;78.43
32298;BME280;18782;48.984;8.548;2022-07-01T06:36:11;100227.44;;;17.55;81.25
32298;BME280;18782;48.984;8.548;2022-07-01T06:38:40;100229.13;;;17.31;79.05
32298;BME280;18782;48.984;8.548;2022-07-01T06:41:08;100227.41;;;17.36;81.28
32298;BME280;18782;48.984;8.548;2022-07-01T06:43:56;100230.88;;;17.41;82.02
32298;BME280;18782;48.984;8.548;2022-07-01T06:46:25;100232.59;;;17.36;81.85
32298;BME280;18782;48.984;8.548;2022-07-01T06:48:53;100230.88;;;17.41;80.56
32298;BME280;18782;48.984;8.548;2022-07-01T06:51:22;100230.84;;;17.14;79.97
32298;BME280;18782;48.984;8.548;2022-07-01T06:53:49;100224.75;;;17.04;81.70
32298;BME280;18782;48.984;8.548;2022-07-01T06:56:17;100217.84;;;17.20;83.51
32298;BME280;18782;48.984;8.548;2022-07-01T06:58:45;100226.53;;;17.30;83.24
32298;BME280;18782;48.984;8.548;2022-07-01T07:01:14;100229.09;;;17.22;81.55
32298;BME280;18782;48.984;8.548;2022-07-01T07:03:41;100230.88;;;17.29;82.62
32298;BME280;18782;48.984;8.548;2022-07-01T07:06:09;100229.13;;;17.37;82.05
32298;BME280;18782;48.984;8.548;2022-07-01T07:08:37;100231.72;;;17.33;82.50
32298;BME280;18782;48.984;8.548;2022-07-01T07:11:05;100242.13;;;17.33;83.01
32298;BME280;18782;48.984;8.548;2022-07-01T07:13:35;100230.88;;;17.29;82.30
32298;BME280;18782;48.984;8.548;2022-07-01T07:16:04;100236.97;;;17.45;83.17
32298;BME280;18782;48.984;8.548;2022-07-01T07:18:33;100255.16;;;17.34;81.14
32298;BME280;18782;48.984;8.548;2022-07-01T07:21:01;100253.38;;;17.16;81.41
32298;BME280;18782;48.984;8.548;2022-07-01T07:23:30;100251.59;;;17.02;82.02
32298;BME280;18782;48.984;8.548;2022-07-01T07:25:57;100258.50;;;16.87;81.32
32298;BME280;18782;48.984;8.548;2022-07-01T07:28:25;100256.69;;;16.76;85.05
32298;BME280;18782;48.984;8.548;2022-07-01T07:30:53;100249.84;;;16.91;84.66
32298;BME280;18782;48.984;8.548;2022-07-01T07:33:20;100243.84;;;17.12;84.72
32298;BME280;18782;48.984;8.548;2022-07-01T07:35:50;100243.00;;;17.26;82.60
32298;BME280;18782;48.984;8.548;2022-07-01T07:38:18;100248.94;;;16.82;80.74
32298;BME280;18782;48.984;8.548;2022-07-01T07:40:46;100254.88;;;16.64;81.01
32298;BME280;18782;48.984;8.548;2022-07-01T07:43:13;100252.28;;;16.64;82.43
32298;BME280;18782;48.984;8.548;2022-07-01T07:45:41;100257.50;;;16.70;84.84
32298;BME280;18782;48.984;8.548;2022-07-01T07:48:09;100251.56;;;16.95;84.28
32298;BME280;18782;48.984;8.548;2022-07-01T07:50:37;100246.38;;;16.95;83.46
32298;BME280;18782;48.984;8.548;2022-07-01T07:53:06;100261.91;;;16.77;81.98
32298;BME280;18782;48.984;8.548;2022-07-01T07:55:34;100265.38;;;16.79;83.47
32298;BME280;18782;48.984;8.548;2022-07-01T07:58:04;100282.63;;;16.68;82.71
32298;BME280;18782;48.984;8.548;2022-07-01T08:00:32;100282.56;;;16.59;83.75
32298;BME280;18782;48.984;8.548;2022-07-01T08:03:05;100288.75;;;16.75;85.18
32298;BME280;18782;48.984;8.548;2022-07-01T08:05:33;100296.41;;;16.52;82.40
32298;BME280;18782;48.984;8.548;2022-07-01T08:08:01;100289.50;;;16.60;85.14
32298;BME280;18782;48.984;8.548;2022-07-01T08:10:30;100275.81;;;16.82;85.85
32298;BME280;18782;48.984;8.548;2022-07-01T08:12:58;100275.81;;;16.85;83.37
32298;BME280;18782;48.984;8.548;2022-07-01T08:15:30;100277.50;;;16.80;82.77
32298;BME280;18782;48.984;8.548;2022-07-01T08:17:58;100286.09;;;16.70;81.72
32298;BME280;18782;48.984;8.548;2022-07-01T08:20:25;100293.13;;;16.77;84.05
32298;BME280;18782;48.984;8.548;2022-07-01T08:22:53;100288.78;;;16.81;83.63
32298;BME280;18782;48.984;8.548;2022-07-01T08:25:23;100306.88;;;16.64;82.88
32298;BME280;18782;48.984;8.548;2022-07-01T08:27:52;100320.69;;;16.60;82.99
32298;BME280;18782;48.984;8.548;2022-07-01T08:30:19;100312.91;;;16.60;83.74
32298;BME280;18782;48.984;8.548;2022-07-01T08:32:48;100313.06;;;16.86;84.90
32298;BME280;18782;48.984;8.548;2022-07-01T08:35:16;100301.03;;;17.03;84.93
32298;BME280;18782;48.984;8.548;2022-07-01T08:37:43;100319.28;;;17.20;84.13
32298;BME280;18782;48.984;8.548;2022-07-01T08:40:12;100332.31;;;17.25;81.14
32298;BME280;18782;48.984;8.548;2022-07-01T08:42:39;100350.47;;;17.11;81.74
32298;BME280;18782;48.984;8.548;2022-07-01T08:45:10;100351.34;;;17.10;82.32
32298;BME280;18782;48.984;8.548;2022-07-01T08:47:51;100330.63;;;17.42;83.36
32298;BME280;18782;48.984;8.548;2022-07-01T08:50:18;100325.53;;;17.79;82.71
32298;BME280;18782;48.984;8.548;2022-07-01T08:52:49;100326.41;;;18.10;80.57
32298;BME280;18782;48.984;8.548;2022-07-01T08:55:17;100335.06;;;18.45;77.51
32298;BME280;18782;48.984;8.548;2022-07-01T08:57:45;100342.03;;;18.49;77.58
32298;BME280;18782;48.984;8.548;2022-07-01T09:00:15;100350.69;;;18.76;76.82
32298;BME280;18782;48.984;8.548;2022-07-01T09:02:51;100350.69;;;18.64;73.70
32298;BME280;18782;48.984;8.548;2022-07-01T09:05:20;100347.22;;;18.60;70.85
32298;BME280;18782;48.984;8.548;2022-07-01T09:07:49;100338.53;;;18.50;73.99
32298;BME280;18782;48.984;8.548;2022-07-01T09:10:22;100348.09;;;18.47;73.49
32298;BME280;18782;48.984;8.548;2022-07-01T09:12:50;100347.25;;;18.07;73.18
32298;BME280;18782;48.984;8.548;2022-07-01T09:15:29;100359.41;;;17.92;76.59
32298;BME280;18782;48.984;8.548;2022-07-01T09:18:04;100336.81;;;18.10;75.56
32298;BME280;18782;48.984;8.548;2022-07-01T09:20:34;100338.56;;;18.14;75.34
32298;BME280;18782;48.984;8.548;2022-07-01T09:23:05;100348.97;;;17.89;73.15
32298;BME280;18782;48.984;8.548;2022-07-01T09:25:35;100340.19;;;17.44;75.88
32298;BME280;18782;48.984;8.548;2022-07-01T09:28:16;100332.41;;;17.61;74.60
32298;BME280;18782;48.984;8.548;2022-07-01T09:30:46;100335.00;;;17.57;75.01
32298;BME280;18782;48.984;8.548;2022-07-01T09:33:16;100335.09;;;17.81;75.71
32298;BME280;18782;48.984;8.548;2022-07-01T09:35:45;100342.91;;;18.15;73.83
32298;BME280;18782;48.984;8.548;2022-07-01T09:38:16;100340.31;;;18.27;74.15
32298;BME280;18782;48.984;8.548;2022-07-01T09:41:00;100355.06;;;17.97;73.02
32298;BME280;18782;48.984;8.548;2022-07-01T09:43:29;100341.16;;;18.00;74.58
32298;BME280;18782;48.984;8.548;2022-07-01T09:46:00;100348.97;;;18.11;74.66
32298;BME280;18782;48.984;8.548;2022-07-01T09:48:42;100349.00;;;18.24;74.57
32298;BME280;18782;48.984;8.548;2022-07-01T09:51:11;100352.44;;;18.46;74.08
32298;BME280;18782;48.984;8.548;2022-07-01T09:53:41;100342.03;;;18.31;72.93
32298;BME280;18782;48.984;8.548;2022-07-01T09:56:08;100346.34;;;18.55;73.18
32298;BME280;18782;48.984;8.548;2022-07-01T09:58:36;100341.03;;;18.95;73.29
32298;BME280;18782;48.984;8.548;2022-07-01T10:01:08;100341.66;;;19.50;70.70
32298;BME280;18782;48.984;8.548;2022-07-01T10:03:37;100344.25;;;19.61;67.95
32298;BME280;18782;48.984;8.548;2022-07-01T10:09:17;100356.72;;;18.93;66.58
32298;BME280;18782;48.984;8.548;2022-07-01T10:14:54;100350.69;;;18.64;68.54
32298;BME280;18782;48.984;8.548;2022-07-01T10:17:28;100352.41;;;18.83;66.84
32298;BME280;18782;48.984;8.548;2022-07-01T10:19:57;100347.94;;;19.17;69.59
32298;BME280;18782;48.984;8.548;2022-07-01T10:22:34;100347.66;;;19.78;70.17
32298;BME280;18782;48.984;8.548;2022-07-01T10:25:33;100349.34;;;19.81;64.92
32298;BME280;18782;48.984;8.548;2022-07-01T10:28:27;100357.81;;;20.17;63.83
32298;BME280;18782;48.984;8.548;2022-07-01T10:31:01;100357.56;;;20.43;66.14
32298;BME280;18782;48.984;8.548;2022-07-01T10:33:40;100358.31;;;20.58;61.94
32298;BME280;18782;48.984;8.548;2022-07-01T10:36:16;100354.88;;;20.53;61.68
32298;BME280;18782;48.984;8.548;2022-07-01T10:39:15;100354.81;;;20.63;61.93
32298;BME280;18782;48.984;8.548;2022-07-01T10:42:00;100361.13;;;20.37;59.48
32298;BME280;18782;48.984;8.548;2022-07-01T10:45:06;100355.03;;;20.37;60.81
32298;BME280;18782;48.984;8.548;2022-07-01T10:47:35;100355.94;;;20.29;59.12
32298;BME280;18782;48.984;8.548;2022-07-01T10:50:07;100366.47;;;20.22;61.75
32298;BME280;18782;48.984;8.548;2022-07-01T10:52:35;100361.78;;;20.61;61.41
32298;BME280;18782;48.984;8.548;2022-07-01T10:55:04;100363.06;;;21.04;61.52
32298;BME280;18782;48.984;8.548;2022-07-01T10:57:35;100358.13;;;21.52;60.85
32298;BME280;18782;48.984;8.548;2022-07-01T11:00:30;100367.16;;;21.90;59.46
32298;BME280;18782;48.984;8.548;2022-07-01T11:06:05;100365.13;;;21.49;55.80
32298;BME280;18782;48.984;8.548;2022-07-01T11:08:33;100359.38;;;21.21;59.18
32298;BME280;18782;48.984;8.548;2022-07-01T11:11:02;100356.03;;;21.09;57.74
32298;BME280;18782;48.984;8.548;2022-07-01T11:13:31;100358.63;;;21.11;58.94
32298;BME280;18782;48.984;8.548;2022-07-01T11:16:03;100357.19;;;20.82;58.35
32298;BME280;18782;48.984;8.548;2022-07-01T11:18:31;100358.28;;;20.62;58.30
32298;BME280;18782;48.984;8.548;2022-07-01T11:21:05;100354.88;;;20.53;58.32
32298;BME280;18782;48.984;8.548;2022-07-01T11:23:33;100363.47;;;20.68;58.97
32298;BME280;18782;48.984;8.548;2022-07-01T11:26:07;100354.50;;;20.90;58.50
32298;BME280;18782;48.984;8.548;2022-07-01T11:28:40;100347.94;;;21.31;58.17
32298;BME280;18782;48.984;8.548;2022-07-01T11:31:08;100356.59;;;21.36;53.75
32298;BME280;18782;48.984;8.548;2022-07-01T11:33:35;100350.59;;;21.25;52.91
32298;BME280;18782;48.984;8.548;2022-07-01T11:36:07;100348.34;;;20.93;53.43
32298;BME280;18782;48.984;8.548;2022-07-01T11:38:54;100345.03;;;21.49;55.16
32298;BME280;18782;48.984;8.548;2022-07-01T11:41:39;100337.16;;;22.09;53.61
32298;BME280;18782;48.984;8.548;2022-07-01T11:44:07;100334.28;;;22.26;50.96
32298;BME280;18782;48.984;8.548;2022-07-01T11:46:35;100338.66;;;22.26;51.23
32298;BME280;18782;48.984;8.548;2022-07-01T11:49:11;100344.56;;;22.85;51.23
32298;BME280;18782;48.984;8.548;2022-07-01T11:51:41;100336.06;;;23.57;49.57
32298;BME280;18782;48.984;8.548;2022-07-01T11:54:19;100335.81;;;24.05;50.50
32298;BME280;18782;48.984;8.548;2022-07-01T11:56:48;100343.72;;;23.28;47.88
32298;BME280;18782;48.984;8.548;2022-07-01T11:59:16;100336.88;;;23.61;47.25
32298;BME280;18782;48.984;8.548;2022-07-01T12:01:51;100336.41;;;23.42;46.23
32298;BME280;18782;48.984;8.548;2022-07-01T12:04:20;100333.31;;;23.63;48.11
32298;BME280;18782;48.984;8.548;2022-07-01T12:06:49;100343.13;;;23.54;47.15
32298;BME280;18782;48.984;8.548;2022-07-01T12:09:18;100343.59;;;23.34;46.13
32298;BME280;18782;48.984;8.548;2022-07-01T12:11:48;100341.84;;;23.33;48.53
32298;BME280;18782;48.984;8.548;2022-07-01T12:14:19;100347.78;;;23.42;48.80
32298;BME280;18782;48.984;8.548;2022-07-01T12:16:50;100345.03;;;23.47;47.71
32298;BME280;18782;48.984;8.548;2022-07-01T12:19:19;100350.94;;;23.16;47.48
32298;BME280;18782;48.984;8.548;2022-07-01T12:21:50;100347.56;;;23.11;47.08
32298;BME280;18782;48.984;8.548;2022-07-01T12:24:19;100336.59;;;22.91;47.03
32298;BME280;18782;48.984;8.548;2022-07-01T12:26:53;100339.69;;;22.66;47.56
32298;BME280;18782;48.984;8.548;2022-07-01T12:29:22;100334.03;;;22.88;48.20
32298;BME280;18782;48.984;8.548;2022-07-01T12:31:58;100328.94;;;23.24;48.00
32298;BME280;18782;48.984;8.548;2022-07-01T12:34:41;100335.88;;;23.66;45.67
32298;BME280;18782;48.984;8.548;2022-07-01T12:37:12;100331.56;;;23.22;47.76
32298;BME280;18782;48.984;8.548;2022-07-01T12:39:47;100326.09;;;23.33;47.85
32298;BME280;18782;48.984;8.548;2022-07-01T12:42:23;100329.22;;;23.50;46.50
32298;BME280;18782;48.984;8.548;2022-07-01T12:44:51;100323.81;;;23.56;43.90
32298;BME280;18782;48.984;8.548;2022-07-01T12:47:20;100322.03;;;23.97;45.54
32298;BME280;18782;48.984;8.548;2022-07-01T12:49:48;100320.69;;;24.82;44.46
32298;BME280;18782;48.984;8.548;2022-07-01T12:52:24;100315.06;;;24.94;41.39
32298;BME280;18782;48.984;8.548;2022-07-01T12:54:55;100321.69;;;24.45;39.46
32298;BME280;18782;48.984;8.548;2022-07-01T12:57:30;100318.88;;;24.84;40.48
32298;BME280;18782;48.984;8.548;2022-07-01T13:00:05;100311.13;;;25.94;39.12
32298;BME280;18782;48.984;8.548;2022-07-01T13:02:33;100307.72;;;26.92;38.21
32298;BME280;18782;48.984;8.548;2022-07-01T13:05:01;100311.53;;;27.77;37.94
32298;BME280;18782;48.984;8.548;2022-07-01T13:07:30;100312.94;;;29.08;36.48
32298;BME280;18782;48.984;8.548;2022-07-01T13:09:57;100311.50;;;29.58;32.89
32298;BME280;18782;48.984;8.548;2022-07-01T13:12:25;100316.31;;;29.50;32.71
32298;BME280;18782;48.984;8.548;2022-07-01T13:14:53;100309.50;;;29.06;33.04